Time;durP1;ratioP1;P1;durP2;ratioP2;P2;SDS_P1;SDS_P2;PMS_P1;PMS_P2;Temp;Humidity;BMP_temperature;BMP_pressure;BME280_temperature;BME280_humidity;BME280_pressure;Samples;Min_cycle;Max_cycle;Signal;HPM_P1;HPM_P2
2022/12/13 00:01:18;;;;;;;23.02;8.23;;;-0.40;99.90;;;;;;5057586;28;20373;-32
2022/12/13 00:03:44;;;;;;;19.95;8.30;;;-0.50;99.90;;;;;;5056314;28;20021;-33
2022/12/13 00:06:11;;;;;;;21.38;8.18;;;-0.50;99.90;;;;;;5060310;28;20057;-33
2022/12/13 00:08:37;;;;;;;23.67;9.13;;;-0.50;99.90;;;;;;5067443;28;20029;-33
2022/12/13 00:11:05;;;;;;;23.35;8.27;;;-0.50;99.90;;;;;;5052662;28;20497;-35
2022/12/13 00:13:32;;;;;;;21.38;8.40;;;-0.60;99.90;;;;;;5054715;28;20061;-34
2022/12/13 00:15:59;;;;;;;23.02;8.40;;;-0.60;99.90;;;;;;5067777;28;20036;-33
2022/12/13 00:18:26;;;;;;;20.23;6.88;;;-0.60;99.90;;;;;;5069089;28;20039;-34
2022/12/13 00:20:52;;;;;;;22.27;9.02;;;-0.50;99.90;;;;;;5071340;28;20028;-39
2022/12/13 00:23:18;;;;;;;18.00;7.93;;;-0.50;99.90;;;;;;5069136;28;20455;-36
2022/12/13 00:25:43;;;;;;;16.02;7.75;;;-0.40;99.90;;;;;;5055909;28;20063;-38
2022/12/13 00:28:09;;;;;;;22.45;7.60;;;-0.40;99.90;;;;;;5066773;28;20036;-34
2022/12/13 00:30:35;;;;;;;17.40;7.82;;;-0.50;99.90;;;;;;5059038;28;20033;-41
2022/12/13 00:33:00;;;;;;;19.08;8.05;;;-0.50;99.90;;;;;;5061223;28;20103;-42
2022/12/13 00:35:26;;;;;;;23.85;7.20;;;-0.50;99.90;;;;;;5067828;28;20392;-32
2022/12/13 00:37:51;;;;;;;18.30;8.50;;;-0.50;99.90;;;;;;5068949;28;20035;-42
2022/12/13 00:40:17;;;;;;;23.55;8.93;;;-0.50;99.90;;;;;;5068844;28;20029;-34
2022/12/13 00:42:43;;;;;;;23.30;8.90;;;-0.50;99.90;;;;;;5063299;28;20481;-30
2022/12/13 00:47:53;;;;;;;31.27;9.82;;;-0.50;99.90;;;;;;5061892;28;20515;-34
2022/12/13 00:50:19;;;;;;;26.63;9.27;;;-0.40;99.90;;;;;;5055530;28;20028;-40
2022/12/13 00:52:44;;;;;;;23.02;9.18;;;-0.40;99.90;;;;;;5054843;28;20533;-35
2022/12/13 00:55:10;;;;;;;24.55;9.48;;;-0.40;99.90;;;;;;5066394;28;20025;-36
2022/12/13 00:57:35;;;;;;;18.45;8.40;;;-0.50;99.90;;;;;;5061360;28;20024;-35
2022/12/13 01:00:01;;;;;;;21.13;8.38;;;-0.50;99.90;;;;;;5067828;28;20076;-32
2022/12/13 01:02:27;;;;;;;18.08;7.95;;;-0.60;99.90;;;;;;5055745;28;20017;-32
2022/12/13 01:04:52;;;;;;;23.73;9.10;;;-0.60;99.90;;;;;;5063906;28;20033;-34
2022/12/13 01:07:18;;;;;;;21.30;8.40;;;-0.60;99.90;;;;;;5072338;28;20021;-34
2022/12/13 01:09:43;;;;;;;19.65;8.40;;;-0.60;99.90;;;;;;5057974;28;20028;-35
2022/12/13 01:12:10;;;;;;;22.17;8.00;;;-0.60;99.90;;;;;;5057512;28;20055;-36
2022/12/13 01:14:56;;;;;;;26.25;8.82;;;-0.60;99.90;;;;;;5063894;28;20312;-39
2022/12/13 01:17:21;;;;;;;19.08;8.30;;;-0.60;99.90;;;;;;5070813;28;20542;-35
2022/12/13 01:19:47;;;;;;;16.30;7.60;;;-0.60;99.90;;;;;;5070901;28;20025;-37
2022/12/13 01:22:12;;;;;;;22.70;7.70;;;-0.60;99.90;;;;;;5069193;28;20029;-32
2022/12/13 01:24:38;;;;;;;17.58;8.18;;;-0.70;99.90;;;;;;5052479;28;20018;-32
2022/12/13 01:27:04;;;;;;;24.13;9.07;;;-0.60;99.90;;;;;;5068491;28;20054;-31
2022/12/13 01:29:30;;;;;;;16.05;7.57;;;-0.60;99.90;;;;;;5060028;28;20036;-36
2022/12/13 01:31:55;;;;;;;19.75;7.38;;;-0.60;99.90;;;;;;5060444;28;20041;-37
2022/12/13 01:34:22;;;;;;;30.02;9.02;;;-0.60;99.90;;;;;;5062852;28;20512;-31
2022/12/13 01:36:48;;;;;;;30.90;8.52;;;-0.60;99.90;;;;;;5057662;28;20032;-44
2022/12/13 01:39:18;;;;;;;15.65;8.50;;;-0.70;99.90;;;;;;5071272;28;20048;-41
2022/12/13 01:41:46;;;;;;;23.83;7.95;;;-0.70;99.90;;;;;;5072465;28;20382;-41
2022/12/13 01:44:50;;;;;;;17.83;8.10;;;-0.70;99.90;;;;;;5066246;28;20115;-45
2022/12/13 01:47:49;;;;;;;17.33;8.23;;;-0.70;99.90;;;;;;5065570;28;20032;-33
2022/12/13 01:50:20;;;;;;;21.35;8.40;;;-0.70;99.90;;;;;;5048647;28;20037;-36
2022/12/13 01:52:47;;;;;;;16.77;7.95;;;-0.80;99.90;;;;;;5059594;28;20032;-37
2022/12/13 01:55:15;;;;;;;21.75;8.32;;;-0.80;99.90;;;;;;5068340;28;20491;-31
2022/12/13 01:57:43;;;;;;;20.45;7.78;;;-0.90;99.90;;;;;;5075540;28;20024;-32
2022/12/13 02:00:10;;;;;;;25.52;8.10;;;-0.90;99.90;;;;;;5072841;28;20037;-41
2022/12/13 02:02:36;;;;;;;18.40;7.60;;;-0.90;99.90;;;;;;5055265;28;20025;-55
2022/12/13 02:05:16;;;;;;;17.60;7.30;;;-1.00;99.90;;;;;;5062715;28;20044;-42
2022/12/13 02:07:43;;;;;;;23.67;6.93;;;-1.00;99.90;;;;;;5073788;28;20488;-43
2022/12/13 02:10:10;;;;;;;18.90;8.47;;;-1.10;99.90;;;;;;5057852;28;20062;-43
2022/12/13 02:12:38;;;;;;;20.52;8.52;;;-1.00;99.90;;;;;;5070732;28;20026;-41
2022/12/13 02:15:15;;;;;;;22.10;8.00;;;-1.00;99.90;;;;;;5073863;28;20415;-41
2022/12/13 02:18:14;;;;;;;23.25;8.57;;;-1.00;99.90;;;;;;5074604;28;20028;-40
2022/12/13 02:21:22;;;;;;;20.15;7.75;;;-0.90;99.90;;;;;;5075682;28;20353;-59
2022/12/13 02:24:25;;;;;;;26.90;8.38;;;-0.90;99.90;;;;;;5031323;28;20485;-42
2022/12/13 02:27:16;;;;;;;18.25;7.80;;;-0.90;99.90;;;;;;5028999;28;20033;-41
2022/12/13 02:29:41;;;;;;;30.63;8.65;;;-1.00;99.90;;;;;;5012359;28;20439;-38
2022/12/13 02:32:27;;;;;;;24.27;8.85;;;-1.00;99.90;;;;;;5062945;28;20029;-41
2022/12/13 02:35:01;;;;;;;22.90;8.32;;;-1.00;99.90;;;;;;5055741;28;20111;-42
2022/12/13 02:37:40;;;;;;;26.52;9.23;;;-1.10;99.90;;;;;;5069166;28;20028;-39
2022/12/13 02:40:08;;;;;;;31.15;8.85;;;-1.10;99.90;;;;;;5055100;28;20070;-48
2022/12/13 02:42:43;;;;;;;20.80;8.70;;;-1.20;99.90;;;;;;5068360;28;20017;-40
2022/12/13 02:45:15;;;;;;;23.98;8.93;;;-1.20;99.90;;;;;;5063597;28;20365;-42
2022/12/13 02:47:43;;;;;;;25.08;9.00;;;-1.20;99.90;;;;;;5066753;28;20362;-42
2022/12/13 02:50:11;;;;;;;26.20;9.20;;;-1.20;99.90;;;;;;5054464;28;20028;-34
2022/12/13 02:52:40;;;;;;;34.80;10.73;;;-1.20;99.90;;;;;;5054519;28;20025;-37
2022/12/13 02:55:10;;;;;;;20.90;8.73;;;-1.20;99.90;;;;;;5064160;28;20494;-34
2022/12/13 02:57:39;;;;;;;27.55;8.32;;;-1.20;99.90;;;;;;5074984;28;20109;-45
2022/12/13 03:00:15;;;;;;;20.35;9.15;;;-1.30;99.90;;;;;;5071270;28;20047;-44
2022/12/13 03:03:20;;;;;;;22.35;9.25;;;-1.30;99.90;;;;;;5074305;28;20527;-43
2022/12/13 03:06:31;;;;;;;26.13;9.48;;;-1.30;99.90;;;;;;5064884;28;20523;-40
2022/12/13 03:09:09;;;;;;;18.70;8.50;;;-1.20;99.90;;;;;;5053767;28;20032;-35
2022/12/13 03:14:47;;;;;;;24.90;10.20;;;-1.20;99.90;;;;;;5060412;28;19923;-35
2022/12/13 03:17:17;;;;;;;25.50;9.35;;;-1.30;99.90;;;;;;5065904;28;20025;-39
2022/12/13 03:19:43;;;;;;;22.15;9.95;;;-1.30;99.90;;;;;;5067701;28;20028;-42
2022/12/13 03:22:09;;;;;;;22.55;8.07;;;-1.30;99.90;;;;;;5065691;28;20495;-32
2022/12/13 03:24:34;;;;;;;25.88;10.05;;;-1.20;99.90;;;;;;5061909;28;20013;-34
2022/12/13 03:27:00;;;;;;;25.90;9.93;;;-1.20;99.90;;;;;;5054023;28;20025;-35
2022/12/13 03:29:26;;;;;;;33.38;10.25;;;-1.20;99.90;;;;;;5053885;28;20017;-34
2022/12/13 03:31:53;;;;;;;28.67;8.27;;;-1.20;99.90;;;;;;5065012;28;20477;-39
2022/12/13 03:34:18;;;;;;;30.63;10.35;;;-1.30;99.90;;;;;;5068350;28;20555;-37
2022/12/13 03:36:44;;;;;;;33.20;10.75;;;-1.20;99.90;;;;;;5073740;28;20021;-36
2022/12/13 03:39:10;;;;;;;23.88;9.63;;;-1.30;99.90;;;;;;5067437;28;20021;-36
2022/12/13 03:41:35;;;;;;;23.95;10.00;;;-1.30;99.90;;;;;;5053834;28;20045;-35
2022/12/13 03:44:06;;;;;;;26.42;9.80;;;-1.20;99.90;;;;;;5054584;28;20375;-35
2022/12/13 03:46:32;;;;;;;27.30;9.70;;;-1.20;99.90;;;;;;5062393;28;20376;-42
2022/12/13 03:48:57;;;;;;;27.13;10.55;;;-1.20;99.90;;;;;;5057602;28;20675;-45
2022/12/13 03:51:23;;;;;;;24.42;8.68;;;-1.20;99.90;;;;;;5072693;28;20016;-64
2022/12/13 03:53:49;;;;;;;22.02;9.48;;;-1.10;99.90;;;;;;5052862;28;20032;-49
2022/12/13 03:56:15;;;;;;;24.30;9.18;;;-1.10;99.90;;;;;;5053782;28;20507;-44
2022/12/13 03:58:43;;;;;;;27.15;10.23;;;-1.10;99.90;;;;;;5053310;28;20041;-44
2022/12/13 04:01:11;;;;;;;22.80;8.32;;;-1.20;99.90;;;;;;5053727;28;20032;-42
2022/12/13 04:03:38;;;;;;;26.90;8.80;;;-1.30;99.90;;;;;;5068281;28;20036;-43
2022/12/13 04:06:04;;;;;;;24.98;7.60;;;-1.30;99.90;;;;;;5053369;28;20388;-34
2022/12/13 04:08:30;;;;;;;30.13;10.85;;;-1.30;99.90;;;;;;5055279;28;20555;-35
2022/12/13 04:10:56;;;;;;;22.08;9.38;;;-1.30;99.90;;;;;;5067020;28;20111;-38
2022/12/13 04:13:33;;;;;;;17.60;8.70;;;-1.30;99.90;;;;;;5073167;28;20082;-33
2022/12/13 04:16:01;;;;;;;21.67;8.18;;;-1.30;99.90;;;;;;5069807;28;20100;-39
2022/12/13 04:18:26;;;;;;;28.00;9.18;;;-1.30;99.90;;;;;;5073283;28;20101;-33
2022/12/13 04:20:52;;;;;;;25.60;9.05;;;-1.20;99.90;;;;;;5056964;28;20056;-45
2022/12/13 04:23:17;;;;;;;23.83;9.50;;;-1.20;99.90;;;;;;5053385;28;20017;-42
2022/12/13 04:25:43;;;;;;;21.95;8.07;;;-1.30;99.90;;;;;;5054713;28;20067;-45
2022/12/13 04:28:09;;;;;;;22.60;8.82;;;-1.30;99.90;;;;;;5056372;28;20032;-40
2022/12/13 04:30:35;;;;;;;19.65;8.82;;;-1.30;99.90;;;;;;5061683;28;20044;-45
2022/12/13 04:33:01;;;;;;;25.65;10.70;;;-1.30;99.90;;;;;;5051515;28;20033;-44
2022/12/13 04:35:27;;;;;;;22.90;8.85;;;-1.20;99.90;;;;;;5059764;28;20391;-44
2022/12/13 04:37:53;;;;;;;28.58;10.95;;;-1.10;99.90;;;;;;5056598;28;20025;-44
2022/12/13 04:40:18;;;;;;;23.85;10.43;;;-1.10;99.90;;;;;;5068169;28;20086;-45
2022/12/13 04:42:44;;;;;;;25.83;8.93;;;-1.10;99.90;;;;;;5054767;28;20020;-37
2022/12/13 04:45:15;;;;;;;27.85;10.10;;;-1.10;99.90;;;;;;5054849;28;20102;-33
2022/12/13 04:47:40;;;;;;;24.13;9.10;;;-1.00;99.90;;;;;;5060251;28;20552;-34
2022/12/13 04:50:06;;;;;;;22.50;9.40;;;-1.00;99.90;;;;;;5066163;28;20104;-42
2022/12/13 04:52:32;;;;;;;24.60;8.70;;;-1.10;99.90;;;;;;5068522;28;20052;-54
2022/12/13 04:54:58;;;;;;;21.63;8.27;;;-1.10;99.90;;;;;;5068146;28;20061;-71
2022/12/13 04:57:23;;;;;;;26.00;9.55;;;-1.20;99.90;;;;;;5069354;28;20024;-43
2022/12/13 04:59:49;;;;;;;27.23;9.98;;;-1.20;99.90;;;;;;5056115;28;20505;-50
2022/12/13 05:02:14;;;;;;;20.58;8.20;;;-1.20;99.90;;;;;;5074675;28;20024;-45
2022/12/13 05:04:40;;;;;;;22.08;9.57;;;-1.30;99.90;;;;;;5071831;28;20024;-41
2022/12/13 05:07:06;;;;;;;25.65;9.85;;;-1.40;99.90;;;;;;5078629;28;20031;-42
2022/12/13 05:09:32;;;;;;;28.80;9.23;;;-1.40;99.90;;;;;;5061832;28;20024;-42
2022/12/13 05:11:57;;;;;;;22.38;9.30;;;-1.40;99.90;;;;;;5073722;28;20027;-41
2022/12/13 05:14:23;;;;;;;34.30;10.70;;;-1.40;99.90;;;;;;5067444;28;20071;-42
2022/12/13 05:16:48;;;;;;;34.42;9.43;;;-1.40;99.90;;;;;;5060436;28;20078;-42
2022/12/13 05:19:14;;;;;;;27.38;9.52;;;-1.40;99.90;;;;;;5077165;28;20021;-41
2022/12/13 05:21:40;;;;;;;28.95;8.98;;;-1.40;99.90;;;;;;5060038;28;20033;-40
2022/12/13 05:24:06;;;;;;;20.90;8.48;;;-1.40;99.90;;;;;;5067192;28;20021;-37
2022/12/13 05:26:32;;;;;;;26.15;9.13;;;-1.40;99.90;;;;;;5062530;28;20029;-41
2022/12/13 05:28:58;;;;;;;27.92;9.30;;;-1.50;99.90;;;;;;5072635;28;20062;-43
2022/12/13 05:34:08;;;;;;;25.40;9.65;;;-1.50;99.90;;;;;;5070821;28;20055;-43
2022/12/13 05:36:34;;;;;;;19.52;8.45;;;-1.50;99.90;;;;;;5076969;28;20028;-42
2022/12/13 05:38:59;;;;;;;28.45;10.13;;;-1.60;99.90;;;;;;5061396;28;20049;-45
2022/12/13 05:41:28;;;;;;;31.50;11.00;;;-1.50;99.90;;;;;;5058167;28;20096;-54
2022/12/13 05:43:53;;;;;;;;;;;-1.40;99.90;;;;;;5061515;28;20477;-42
2022/12/13 05:46:19;;;;;;;25.30;9.48;;;-1.40;99.90;;;;;;5061888;28;19924;-44
2022/12/13 05:48:45;;;;;;;20.27;8.95;;;-1.40;99.90;;;;;;5070162;28;20032;-41
2022/12/13 05:51:11;;;;;;;19.92;9.13;;;-1.40;99.90;;;;;;5071220;28;20025;-45
2022/12/13 05:53:36;;;;;;;22.17;8.98;;;-1.40;99.90;;;;;;5058593;28;20028;-40
2022/12/13 05:56:02;;;;;;;24.83;9.40;;;-1.40;99.90;;;;;;5072137;28;20473;-44
2022/12/13 05:58:28;;;;;;;31.65;9.73;;;-1.30;99.90;;;;;;5067007;28;20127;-44
2022/12/13 06:00:54;;;;;;;20.92;8.95;;;-1.30;99.90;;;;;;5075942;28;20452;-46
2022/12/13 06:03:20;;;;;;;26.05;10.07;;;-1.30;99.90;;;;;;5071892;28;20103;-46
2022/12/13 06:05:45;;;;;;;25.77;8.80;;;-1.40;99.90;;;;;;5078864;28;20035;-41
2022/12/13 06:08:11;;;;;;;24.90;9.88;;;-1.40;99.90;;;;;;5064871;28;20024;-39
2022/12/13 06:10:37;;;;;;;27.77;11.00;;;-1.40;99.90;;;;;;5062137;28;20036;-42
2022/12/13 06:13:04;;;;;;;26.23;9.75;;;-1.40;99.90;;;;;;5067681;28;20499;-42
2022/12/13 06:15:30;;;;;;;27.65;9.57;;;-1.50;99.90;;;;;;5073222;28;20125;-40
2022/12/13 06:17:58;;;;;;;31.48;10.55;;;-1.60;99.90;;;;;;5060535;28;20030;-40
2022/12/13 06:20:24;;;;;;;29.17;9.43;;;-1.50;99.90;;;;;;5066525;28;20029;-42
2022/12/13 06:22:50;;;;;;;22.98;9.30;;;-1.50;99.90;;;;;;5068575;28;20476;-40
2022/12/13 06:25:15;;;;;;;24.40;8.35;;;-1.40;99.90;;;;;;5064183;28;20435;-44
2022/12/13 06:27:41;;;;;;;26.48;9.68;;;-1.40;99.90;;;;;;5067717;28;20476;-40
2022/12/13 06:30:07;;;;;;;19.52;8.20;;;-1.40;99.90;;;;;;5075244;28;20492;-39
2022/12/13 06:32:33;;;;;;;25.90;9.65;;;-1.40;99.90;;;;;;5063399;28;20016;-39
2022/12/13 06:34:58;;;;;;;23.02;8.57;;;-1.40;99.90;;;;;;5071518;28;20565;-34
2022/12/13 06:37:24;;;;;;;37.08;11.20;;;-1.50;99.90;;;;;;5073989;28;20104;-39
2022/12/13 06:39:50;;;;;;;19.75;8.95;;;-1.50;99.90;;;;;;5069776;28;20021;-43
2022/12/13 06:42:17;;;;;;;27.80;10.65;;;-1.50;99.90;;;;;;5056694;28;20068;-40
2022/12/13 06:44:43;;;;;;;24.63;9.02;;;-1.60;99.90;;;;;;5072771;28;20070;-45
2022/12/13 06:47:08;;;;;;;26.85;9.20;;;-1.60;99.90;;;;;;5067836;28;20032;-43
2022/12/13 06:49:34;;;;;;;24.27;10.20;;;-1.70;99.90;;;;;;5068701;28;20104;-42
2022/12/13 06:52:00;;;;;;;29.10;10.90;;;-1.70;99.90;;;;;;5059602;28;20029;-39
2022/12/13 06:54:25;;;;;;;23.38;9.68;;;-1.70;99.90;;;;;;5061394;28;20024;-45
2022/12/13 06:56:51;;;;;;;25.33;9.00;;;-1.60;99.90;;;;;;5063904;28;20036;-45
2022/12/13 06:59:16;;;;;;;24.88;9.95;;;-1.60;99.90;;;;;;5067627;28;20049;-43
2022/12/13 07:01:42;;;;;;;33.17;10.00;;;-1.50;99.90;;;;;;5059925;28;20100;-36
2022/12/13 07:04:10;;;;;;;19.92;9.10;;;-1.50;99.90;;;;;;5053072;28;20051;-42
2022/12/13 07:06:35;;;;;;;24.70;8.25;;;-1.50;99.90;;;;;;5070042;28;20464;-41
2022/12/13 07:09:01;;;;;;;22.92;9.85;;;-1.60;99.90;;;;;;5066747;28;20048;-48
2022/12/13 07:11:30;;;;;;;23.80;9.30;;;-1.60;99.90;;;;;;5064582;28;20495;-43
2022/12/13 07:13:56;;;;;;;22.27;9.02;;;-1.60;99.90;;;;;;5064011;28;20024;-42
2022/12/13 07:16:23;;;;;;;21.52;9.18;;;-1.60;99.90;;;;;;5055848;28;20466;-45
2022/12/13 07:18:56;;;;;;;25.88;9.68;;;-1.60;99.90;;;;;;5057372;28;20036;-41
2022/12/13 07:21:22;;;;;;;21.90;9.25;;;-1.60;99.90;;;;;;5054602;28;20354;-45
2022/12/13 07:23:48;;;;;;;23.23;9.00;;;-1.60;99.90;;;;;;5052683;28;20025;-43
2022/12/13 07:26:13;;;;;;;23.75;9.18;;;-1.50;99.90;;;;;;5060405;28;20027;-43
2022/12/13 07:28:39;;;;;;;23.75;8.73;;;-1.50;99.90;;;;;;5064961;28;20024;-51
2022/12/13 07:31:07;;;;;;;24.73;10.25;;;-1.50;99.90;;;;;;5068679;28;20503;-44
2022/12/13 07:33:33;;;;;;;17.80;8.80;;;-1.60;99.90;;;;;;5054503;28;20060;-45
2022/12/13 07:36:05;;;;;;;24.95;10.05;;;-1.60;99.90;;;;;;5053932;28;20090;-44
2022/12/13 07:38:35;;;;;;;20.10;9.63;;;-1.70;99.90;;;;;;5061808;28;20033;-42
2022/12/13 07:41:01;;;;;;;26.67;9.77;;;-1.60;99.90;;;;;;5052533;28;20024;-41
2022/12/13 07:43:28;;;;;;;23.98;10.13;;;-1.60;99.90;;;;;;5053775;28;20025;-44
2022/12/13 07:45:56;;;;;;;18.38;8.43;;;-1.50;99.90;;;;;;5052427;28;20471;-42
2022/12/13 07:48:22;;;;;;;24.67;9.15;;;-1.50;99.90;;;;;;5053555;28;20025;-43
2022/12/13 07:50:48;;;;;;;27.23;10.05;;;-1.50;99.90;;;;;;5053668;28;20106;-45
2022/12/13 07:53:13;;;;;;;20.02;9.38;;;-1.50;99.90;;;;;;5053709;28;20434;-44
2022/12/13 07:55:39;;;;;;;25.40;9.52;;;-1.40;99.90;;;;;;5053887;28;20069;-36
2022/12/13 07:58:10;;;;;;;20.48;9.15;;;-1.40;99.90;;;;;;5052998;28;20094;-33
2022/12/13 08:00:37;;;;;;;26.90;10.85;;;-1.40;99.90;;;;;;5054234;28;20465;-34
2022/12/13 08:03:03;;;;;;;24.98;10.55;;;-1.40;99.90;;;;;;5071259;28;20032;-42
2022/12/13 08:05:28;;;;;;;20.05;9.35;;;-1.40;99.90;;;;;;5068383;28;20487;-38
2022/12/13 08:07:54;;;;;;;27.48;10.43;;;-1.40;99.90;;;;;;5054793;28;20025;-36
2022/12/13 08:10:20;;;;;;;22.80;9.85;;;-1.30;99.90;;;;;;5059477;28;20095;-39
2022/12/13 08:12:46;;;;;;;28.08;9.32;;;-1.30;99.90;;;;;;5061470;28;20035;-36
2022/12/13 08:15:11;;;;;;;24.45;10.32;;;-1.20;99.90;;;;;;5060278;28;20021;-34
2022/12/13 08:17:37;;;;;;;25.10;10.05;;;-1.30;99.90;;;;;;5060328;28;20036;-37
2022/12/13 08:20:04;;;;;;;28.02;10.57;;;-1.30;99.90;;;;;;5061944;28;20021;-31
2022/12/13 08:22:29;;;;;;;37.55;10.75;;;-1.30;99.90;;;;;;5070536;28;20029;-37
2022/12/13 08:24:55;;;;;;;30.60;10.85;;;-1.30;99.90;;;;;;5073186;28;20040;-32
2022/12/13 08:27:21;;;;;;;19.60;8.38;;;-1.30;99.90;;;;;;5060581;28;20493;-36
2022/12/13 08:29:46;;;;;;;24.83;9.23;;;-1.20;99.90;;;;;;5060887;28;20036;-35
2022/12/13 08:32:12;;;;;;;30.38;10.75;;;-1.20;99.90;;;;;;5065583;28;20061;-34
2022/12/13 08:34:40;;;;;;;25.60;9.63;;;-1.10;99.90;;;;;;5052666;28;20495;-33
2022/12/13 08:37:05;;;;;;;33.38;10.07;;;-1.10;99.90;;;;;;5052811;28;20032;-34
2022/12/13 08:39:33;;;;;;;26.42;10.23;;;-1.10;99.90;;;;;;5051375;28;20358;-34
2022/12/13 08:41:59;;;;;;;26.10;10.95;;;-1.00;99.90;;;;;;5056323;28;20123;-37
2022/12/13 08:44:24;;;;;;;28.13;9.73;;;-1.00;99.90;;;;;;5057302;28;20092;-35
2022/12/13 08:46:50;;;;;;;27.10;10.63;;;-0.90;99.90;;;;;;5057221;28;20027;-52
2022/12/13 08:49:16;;;;;;;27.08;10.88;;;-0.80;99.90;;;;;;5058199;28;20104;-34
2022/12/13 08:51:41;;;;;;;26.85;10.02;;;-0.90;99.90;;;;;;5054605;28;20124;-36
2022/12/13 08:54:07;;;;;;;35.90;14.48;;;-0.80;99.90;;;;;;5057242;28;20020;-34
2022/12/13 08:56:33;;;;;;;31.27;11.60;;;-0.70;99.90;;;;;;5064771;28;20082;-37
2022/12/13 08:58:58;;;;;;;23.50;9.73;;;-0.50;99.90;;;;;;5071662;28;20056;-37
2022/12/13 09:01:24;;;;;;;38.03;11.25;;;-0.50;99.90;;;;;;5069747;28;20028;-40
2022/12/13 09:03:49;;;;;;;27.25;10.75;;;-0.50;99.90;;;;;;5058616;28;20073;-35
2022/12/13 09:06:15;;;;;;;29.75;11.90;;;-0.50;99.90;;;;;;5055520;28;20412;-38
2022/12/13 09:08:42;;;;;;;27.17;11.10;;;-0.50;99.90;;;;;;5062037;28;20492;-33
2022/12/13 09:11:10;;;;;;;27.38;11.45;;;-0.60;99.90;;;;;;5054097;28;20168;-33
2022/12/13 09:13:37;;;;;;;35.20;11.48;;;-0.50;99.90;;;;;;5051725;28;20043;-39
2022/12/13 09:16:22;;;;;;;25.17;9.65;;;-0.50;99.90;;;;;;5063695;28;20068;-34
2022/12/13 09:18:49;;;;;;;29.52;10.93;;;-0.50;99.90;;;;;;5053541;28;20033;-35
2022/12/13 09:21:15;;;;;;;18.88;9.38;;;-0.60;99.90;;;;;;5064551;28;20572;-38
2022/12/13 09:23:41;;;;;;;30.48;11.32;;;-0.60;99.90;;;;;;5052450;28;20103;-39
2022/12/13 09:26:07;;;;;;;29.92;11.80;;;-0.60;99.90;;;;;;5055763;28;20051;-35
2022/12/13 09:28:35;;;;;;;28.88;10.85;;;-0.50;99.90;;;;;;5072349;28;20552;-33
2022/12/13 09:31:07;;;;;;;32.75;11.48;;;-0.50;99.90;;;;;;5064547;28;20071;-36
2022/12/13 09:33:33;;;;;;;32.08;11.13;;;-0.50;99.90;;;;;;5052275;28;20104;-37
2022/12/13 09:35:58;;;;;;;27.38;10.98;;;-0.60;99.90;;;;;;5052682;28;20115;-36
2022/12/13 09:38:24;;;;;;;26.60;11.45;;;-0.50;99.90;;;;;;5052604;28;20033;-35
2022/12/13 09:40:52;;;;;;;28.02;12.40;;;-0.50;99.90;;;;;;5052266;28;20527;-39
2022/12/13 09:43:24;;;;;;;;;;;-0.50;99.90;;;;;;5058962;28;20357;-39
2022/12/13 09:45:50;;;;;;;34.75;12.27;;;-0.50;99.90;;;;;;5052814;28;20265;-33
2022/12/13 09:48:21;;;;;;;30.92;11.48;;;-0.40;99.90;;;;;;5056038;28;20096;-39
2022/12/13 09:50:48;;;;;;;33.15;12.27;;;-0.40;99.90;;;;;;5056061;28;20037;-35
2022/12/13 09:53:17;;;;;;;35.28;13.05;;;-0.40;99.90;;;;;;5055768;28;20103;-31
2022/12/13 09:55:48;;;;;;;31.55;12.05;;;-0.40;99.90;;;;;;5067944;28;20047;-34
2022/12/13 09:58:19;;;;;;;33.30;13.20;;;-0.30;99.90;;;;;;5055333;28;20044;-33
2022/12/13 10:00:48;;;;;;;25.80;11.45;;;-0.30;99.90;;;;;;5063158;28;20476;-34
2022/12/13 10:03:17;;;;;;;46.10;14.10;;;-0.30;99.90;;;;;;5068799;28;20048;-35
2022/12/13 10:06:03;;;;;;;44.10;13.85;;;-0.40;99.90;;;;;;5057970;28;20543;-36
2022/12/13 10:08:37;;;;;;;43.22;15.18;;;-0.40;99.90;;;;;;5048597;28;20029;-34
2022/12/13 10:11:03;;;;;;;33.95;11.80;;;-0.40;99.90;;;;;;5063175;28;20476;-38
2022/12/13 10:13:41;;;;;;;33.58;12.80;;;-0.40;99.90;;;;;;5057397;28;20025;-38
2022/12/13 10:16:35;;;;;;;37.70;12.50;;;-0.40;99.90;;;;;;5057513;28;20127;-34
2022/12/13 10:19:12;;;;;;;28.88;13.18;;;-0.40;99.90;;;;;;5063215;28;20028;-39
2022/12/13 10:21:40;;;;;;;27.33;11.90;;;-0.40;99.90;;;;;;5065023;28;20402;-38
2022/12/13 10:24:26;;;;;;;29.38;12.25;;;-0.40;99.90;;;;;;5058829;28;20020;-36
2022/12/13 10:26:53;;;;;;;32.33;12.52;;;-0.40;99.90;;;;;;5074451;28;20025;-36
2022/12/13 10:29:19;;;;;;;33.00;12.27;;;-0.40;99.90;;;;;;5072900;28;20447;-34
2022/12/13 10:31:47;;;;;;;36.88;12.90;;;-0.40;99.90;;;;;;5063287;28;20025;-34
2022/12/13 10:34:23;;;;;;;;;;;-0.50;99.90;;;;;;5055687;28;20047;-34
2022/12/13 10:37:08;;;;;;;31.05;12.90;;;-0.50;99.90;;;;;;5057538;28;20356;-37
2022/12/13 10:39:42;;;;;;;35.28;13.40;;;-0.40;99.90;;;;;;5060796;28;20381;-38
2022/12/13 10:42:26;;;;;;;28.80;11.48;;;-0.40;99.90;;;;;;5061308;28;20028;-36
2022/12/13 10:45:09;;;;;;;35.75;12.60;;;-0.30;99.90;;;;;;5058201;28;20508;-35
2022/12/13 10:47:35;;;;;;;41.63;12.60;;;-0.10;99.90;;;;;;5054669;28;20025;-36
2022/12/13 10:50:01;;;;;;;31.88;11.93;;;0.00;99.90;;;;;;5063451;28;20040;-34
2022/12/13 10:52:33;;;;;;;29.38;11.88;;;0.10;99.90;;;;;;5073486;28;20036;-34
2022/12/13 10:55:06;;;;;;;31.52;13.10;;;0.10;99.90;;;;;;5061764;28;20044;-35
2022/12/13 10:57:32;;;;;;;24.45;11.02;;;0.20;99.90;;;;;;5054411;28;20444;-34
2022/12/13 11:00:01;;;;;;;29.52;11.90;;;0.20;99.90;;;;;;5057557;28;20248;-37
2022/12/13 11:02:36;;;;;;;28.95;10.25;;;0.20;99.90;;;;;;5068048;28;20056;-46
2022/12/13 11:05:26;;;;;;;30.38;12.38;;;0.30;99.90;;;;;;5072208;28;20082;-41
2022/12/13 11:07:54;;;;;;;33.97;11.30;;;0.40;99.90;;;;;;5049344;28;20493;-44
2022/12/13 11:10:25;;;;;;;31.25;12.25;;;0.40;99.90;;;;;;5058577;28;20064;-42
2022/12/13 11:12:56;;;;;;;33.38;11.82;;;0.50;99.90;;;;;;5054804;28;20448;-44
2022/12/13 11:15:25;;;;;;;29.85;10.77;;;0.50;99.90;;;;;;5055278;28;20032;-44
2022/12/13 11:17:51;;;;;;;;;;;0.40;99.90;;;;;;5058338;28;20033;-44
2022/12/13 11:20:22;;;;;;;30.83;10.48;;;0.50;99.90;;;;;;5055839;28;20372;-44
2022/12/13 11:22:57;;;;;;;25.80;12.38;;;0.40;99.90;;;;;;5056997;28;20053;-43
2022/12/13 11:25:27;;;;;;;31.20;11.68;;;0.30;99.90;;;;;;5058837;28;20443;-43
2022/12/13 11:28:11;;;;;;;29.85;11.10;;;0.30;99.90;;;;;;5054949;28;20523;-46
2022/12/13 11:30:56;;;;;;;35.08;12.60;;;0.40;99.90;;;;;;5068665;28;20025;-42
2022/12/13 11:33:50;;;;;;;35.03;12.75;;;0.40;99.90;;;;;;5065213;28;20531;-44
2022/12/13 11:36:31;;;;;;;26.63;10.32;;;0.40;99.90;;;;;;5067620;28;20521;-43
2022/12/13 11:39:11;;;;;;;30.80;10.65;;;0.50;99.90;;;;;;5057766;28;20029;-48
2022/12/13 11:41:43;;;;;;;30.17;11.98;;;0.60;99.90;;;;;;5061922;28;20034;-42
2022/12/13 11:44:17;;;;;;;26.42;10.55;;;0.70;99.90;;;;;;5053689;28;20476;-44
2022/12/13 11:46:49;;;;;;;32.42;11.52;;;0.80;99.90;;;;;;5052418;28;20031;-43
2022/12/13 11:49:17;;;;;;;23.77;10.10;;;0.80;99.90;;;;;;5053874;28;20032;-43
2022/12/13 11:51:54;;;;;;;23.95;10.45;;;0.90;99.90;;;;;;5053812;28;20423;-49
2022/12/13 11:54:46;;;;;;;26.23;10.23;;;1.00;99.90;;;;;;5066233;28;20028;-44
2022/12/13 11:57:30;;;;;;;23.83;9.88;;;1.00;99.90;;;;;;5052519;28;20059;-47
2022/12/13 12:00:27;;;;;;;24.08;9.75;;;0.90;99.90;;;;;;5053353;28;20055;-42
2022/12/13 12:02:59;;;;;;;22.17;9.52;;;0.90;99.90;;;;;;5049459;28;20041;-42
2022/12/13 12:05:31;;;;;;;21.27;9.50;;;0.80;99.90;;;;;;5053560;28;20083;-49
2022/12/13 12:08:39;;;;;;;30.98;11.82;;;0.80;99.90;;;;;;5053284;28;20504;-42
2022/12/13 12:11:30;;;;;;;26.77;10.25;;;0.80;99.90;;;;;;5053334;28;20048;-43
2022/12/13 12:14:08;;;;;;;25.02;10.30;;;0.80;99.90;;;;;;5053497;28;20516;-44
2022/12/13 12:16:45;;;;;;;23.37;9.50;;;0.80;99.90;;;;;;5053199;28;20025;-53
2022/12/13 12:19:19;;;;;;;21.08;9.10;;;0.80;99.90;;;;;;5053267;28;20267;-47
2022/12/13 12:22:14;;;;;;;24.85;9.68;;;0.80;99.90;;;;;;5053271;28;20025;-45
2022/12/13 12:25:07;;;;;;;27.50;9.27;;;0.80;99.90;;;;;;5048413;28;20597;-42
2022/12/13 12:27:35;;;;;;;25.13;11.05;;;0.80;99.90;;;;;;5053444;28;20385;-42
2022/12/13 12:30:22;;;;;;;31.48;9.85;;;0.70;99.90;;;;;;5071698;28;20396;-45
2022/12/13 12:33:15;;;;;;;26.70;10.10;;;0.70;99.90;;;;;;5073068;28;20032;-44
2022/12/13 12:36:18;;;;;;;18.92;9.32;;;0.80;99.90;;;;;;5065808;28;20055;-40
2022/12/13 12:39:18;;;;;;;22.75;9.30;;;1.00;99.90;;;;;;5063983;28;20437;-46
2022/12/13 12:42:09;;;;;;;30.08;11.85;;;1.10;99.90;;;;;;5061771;28;20037;-43
2022/12/13 12:44:51;;;;;;;26.80;11.30;;;1.10;99.90;;;;;;5070430;28;20445;-48
2022/12/13 12:47:31;;;;;;;27.08;11.32;;;1.00;99.90;;;;;;5056727;28;20113;-40
2022/12/13 12:50:06;;;;;;;24.58;10.57;;;1.00;99.90;;;;;;5067683;28;20029;-44
2022/12/13 12:52:53;;;;;;;34.33;10.75;;;1.10;99.90;;;;;;5053428;28;20424;-45
2022/12/13 12:55:42;;;;;;;29.90;11.70;;;1.10;99.90;;;;;;5050990;28;20075;-41
2022/12/13 12:58:29;;;;;;;33.00;9.93;;;1.20;99.90;;;;;;5057783;28;20029;-35
2022/12/13 13:01:00;;;;;;;23.98;9.90;;;1.30;99.90;;;;;;5061035;28;20493;-31